Terminal Aerodrome Forecast
Issued by NWS

Current Version | Previous Version | Graphics & Text | Print | Product List | Glossary On
Versions: 1 2 3 4 5 6 7 8 9 10 11 12 13 14 15 16 17 18 19 20 21 22 23 24 25
000
FTUS41 KRLX 211100
TAFCKB
TAF
KCKB 211129Z 2112/2212 VRB03KT P6SM -SHRA OVC025
      TEMPO 2112/2113 BKN015
     FM211700 27005KT P6SM -SHRA OVC035
     FM220100 31005KT 6SM -SHRA BR OVC035
     FM220200 31006KT P6SM OVC025
     FM220500 31005KT P6SM OVC015
     FM221100 31004KT P6SM OVC010=

USA.gov is the U.S. government's official web portal to all federal, state and local government web resources and services.